sensor_id;sensor_type;location;lat;lon;timestamp;temperature;humidity
77467;DHT22;66564;42.482;25.548;2023-03-03T00:01:04;5.93;75.36
77467;DHT22;66564;42.482;25.548;2023-03-03T00:03:30;5.94;75.34
77467;DHT22;66564;42.482;25.548;2023-03-03T00:05:56;5.93;75.37
77467;DHT22;66564;42.482;25.548;2023-03-03T00:08:22;5.98;75.08
77467;DHT22;66564;42.482;25.548;2023-03-03T00:10:48;5.97;75.18
77467;DHT22;66564;42.482;25.548;2023-03-03T00:13:25;5.94;74.89
77467;DHT22;66564;42.482;25.548;2023-03-03T00:15:51;5.91;74.61
77467;DHT22;66564;42.482;25.548;2023-03-03T00:18:21;5.93;74.53
77467;DHT22;66564;42.482;25.548;2023-03-03T00:20:55;5.91;74.31
77467;DHT22;66564;42.482;25.548;2023-03-03T00:25:56;5.93;74.92
77467;DHT22;66564;42.482;25.548;2023-03-03T00:28:29;5.89;75.21
77467;DHT22;66564;42.482;25.548;2023-03-03T00:30:58;5.84;74.63
77467;DHT22;66564;42.482;25.548;2023-03-03T00:33:32;5.83;74.46
77467;DHT22;66564;42.482;25.548;2023-03-03T00:36:35;5.87;74.35
77467;DHT22;66564;42.482;25.548;2023-03-03T00:41:46;5.76;73.98
77467;DHT22;66564;42.482;25.548;2023-03-03T00:46:53;5.74;74.04
77467;DHT22;66564;42.482;25.548;2023-03-03T00:49:25;5.67;74.23
77467;DHT22;66564;42.482;25.548;2023-03-03T00:51:52;5.67;74.35
77467;DHT22;66564;42.482;25.548;2023-03-03T00:54:18;5.66;74.98
77467;DHT22;66564;42.482;25.548;2023-03-03T00:56:43;5.60;75.73
77467;DHT22;66564;42.482;25.548;2023-03-03T00:59:10;5.63;76.13
77467;DHT22;66564;42.482;25.548;2023-03-03T01:01:35;5.69;76.42
77467;DHT22;66564;42.482;25.548;2023-03-03T01:04:01;5.69;76.39
77467;DHT22;66564;42.482;25.548;2023-03-03T01:06:27;5.67;76.26
77467;DHT22;66564;42.482;25.548;2023-03-03T01:08:52;5.74;75.94
77467;DHT22;66564;42.482;25.548;2023-03-03T01:11:23;5.71;75.40
77467;DHT22;66564;42.482;25.548;2023-03-03T01:13:51;5.70;75.37
77467;DHT22;66564;42.482;25.548;2023-03-03T01:16:17;5.74;75.89
77467;DHT22;66564;42.482;25.548;2023-03-03T01:18:43;5.76;75.66
77467;DHT22;66564;42.482;25.548;2023-03-03T01:21:09;5.80;75.65
77467;DHT22;66564;42.482;25.548;2023-03-03T01:23:35;5.81;75.76
77467;DHT22;66564;42.482;25.548;2023-03-03T01:26:00;5.78;75.85
77467;DHT22;66564;42.482;25.548;2023-03-03T01:28:26;5.77;75.96
77467;DHT22;66564;42.482;25.548;2023-03-03T01:30:51;5.77;75.91
77467;DHT22;66564;42.482;25.548;2023-03-03T01:33:17;5.73;76.11
77467;DHT22;66564;42.482;25.548;2023-03-03T01:35:44;5.73;76.22
77467;DHT22;66564;42.482;25.548;2023-03-03T01:38:10;5.71;76.04
77467;DHT22;66564;42.482;25.548;2023-03-03T01:40:36;5.67;76.38
77467;DHT22;66564;42.482;25.548;2023-03-03T01:43:02;5.69;76.30
77467;DHT22;66564;42.482;25.548;2023-03-03T01:45:43;5.64;76.20
77467;DHT22;66564;42.482;25.548;2023-03-03T01:48:39;5.66;76.18
77467;DHT22;66564;42.482;25.548;2023-03-03T01:53:50;5.63;76.07
77467;DHT22;66564;42.482;25.548;2023-03-03T01:56:17;5.60;75.53
77467;DHT22;66564;42.482;25.548;2023-03-03T01:58:45;5.59;75.94
77467;DHT22;66564;42.482;25.548;2023-03-03T02:01:19;5.62;76.39
77467;DHT22;66564;42.482;25.548;2023-03-03T02:03:45;5.60;76.07
77467;DHT22;66564;42.482;25.548;2023-03-03T02:06:13;5.63;76.20
77467;DHT22;66564;42.482;25.548;2023-03-03T02:08:51;5.73;76.40
77467;DHT22;66564;42.482;25.548;2023-03-03T02:11:20;5.73;76.33
77467;DHT22;66564;42.482;25.548;2023-03-03T02:13:46;5.69;75.98
77467;DHT22;66564;42.482;25.548;2023-03-03T02:16:11;5.69;75.78
77467;DHT22;66564;42.482;25.548;2023-03-03T02:18:37;5.71;74.92
77467;DHT22;66564;42.482;25.548;2023-03-03T02:21:09;5.78;75.34
77467;DHT22;66564;42.482;25.548;2023-03-03T02:24:05;5.83;75.90
77467;DHT22;66564;42.482;25.548;2023-03-03T02:26:36;5.87;75.61
77467;DHT22;66564;42.482;25.548;2023-03-03T02:29:03;5.80;75.31
77467;DHT22;66564;42.482;25.548;2023-03-03T02:31:30;5.81;75.64
77467;DHT22;66564;42.482;25.548;2023-03-03T02:33:56;5.80;75.23
77467;DHT22;66564;42.482;25.548;2023-03-03T02:39:02;5.83;75.22
77467;DHT22;66564;42.482;25.548;2023-03-03T02:42:01;5.80;72.81
77467;DHT22;66564;42.482;25.548;2023-03-03T02:44:31;5.81;71.83
77467;DHT22;66564;42.482;25.548;2023-03-03T02:46:57;5.76;72.67
77467;DHT22;66564;42.482;25.548;2023-03-03T02:49:26;5.76;73.95
77467;DHT22;66564;42.482;25.548;2023-03-03T02:51:52;5.74;74.40
77467;DHT22;66564;42.482;25.548;2023-03-03T02:54:19;5.76;74.57
77467;DHT22;66564;42.482;25.548;2023-03-03T02:56:45;5.77;74.81
77467;DHT22;66564;42.482;25.548;2023-03-03T02:59:12;5.74;74.86
77467;DHT22;66564;42.482;25.548;2023-03-03T03:01:38;5.76;75.56
77467;DHT22;66564;42.482;25.548;2023-03-03T03:04:09;5.77;74.31
77467;DHT22;66564;42.482;25.548;2023-03-03T03:06:35;5.76;74.45
77467;DHT22;66564;42.482;25.548;2023-03-03T03:09:01;5.76;74.61
77467;DHT22;66564;42.482;25.548;2023-03-03T03:11:27;5.71;74.20
77467;DHT22;66564;42.482;25.548;2023-03-03T03:13:53;5.70;74.44
77467;DHT22;66564;42.482;25.548;2023-03-03T03:16:20;5.67;74.66
77467;DHT22;66564;42.482;25.548;2023-03-03T03:18:45;5.63;74.76
77467;DHT22;66564;42.482;25.548;2023-03-03T03:21:12;5.63;74.82
77467;DHT22;66564;42.482;25.548;2023-03-03T03:23:39;5.63;74.80
77467;DHT22;66564;42.482;25.548;2023-03-03T03:26:05;5.64;74.69
77467;DHT22;66564;42.482;25.548;2023-03-03T03:28:31;5.64;75.07
77467;DHT22;66564;42.482;25.548;2023-03-03T03:30:56;5.63;74.83
77467;DHT22;66564;42.482;25.548;2023-03-03T03:33:23;5.66;74.61
77467;DHT22;66564;42.482;25.548;2023-03-03T03:35:49;5.63;74.81
77467;DHT22;66564;42.482;25.548;2023-03-03T03:38:15;5.66;74.72
77467;DHT22;66564;42.482;25.548;2023-03-03T03:40:41;5.69;74.39
77467;DHT22;66564;42.482;25.548;2023-03-03T03:43:06;5.64;73.82
77467;DHT22;66564;42.482;25.548;2023-03-03T03:45:32;5.64;74.05
77467;DHT22;66564;42.482;25.548;2023-03-03T03:47:57;5.62;74.40
77467;DHT22;66564;42.482;25.548;2023-03-03T03:50:23;5.54;75.20
77467;DHT22;66564;42.482;25.548;2023-03-03T03:52:49;5.57;75.01
77467;DHT22;66564;42.482;25.548;2023-03-03T03:55:15;5.60;75.07
77467;DHT22;66564;42.482;25.548;2023-03-03T03:57:41;5.63;75.04
77467;DHT22;66564;42.482;25.548;2023-03-03T04:00:08;5.64;74.08
77467;DHT22;66564;42.482;25.548;2023-03-03T04:02:34;5.62;74.07
77467;DHT22;66564;42.482;25.548;2023-03-03T04:05:00;5.62;74.57
77467;DHT22;66564;42.482;25.548;2023-03-03T04:07:26;5.56;74.37
77467;DHT22;66564;42.482;25.548;2023-03-03T04:09:51;5.57;75.23
77467;DHT22;66564;42.482;25.548;2023-03-03T04:12:17;5.57;75.34
77467;DHT22;66564;42.482;25.548;2023-03-03T04:14:42;5.57;75.16
77467;DHT22;66564;42.482;25.548;2023-03-03T04:17:14;5.54;75.23
77467;DHT22;66564;42.482;25.548;2023-03-03T04:19:40;5.56;75.05
77467;DHT22;66564;42.482;25.548;2023-03-03T04:22:06;5.57;75.09
77467;DHT22;66564;42.482;25.548;2023-03-03T04:24:32;5.60;75.63
77467;DHT22;66564;42.482;25.548;2023-03-03T04:26:57;5.66;75.94
77467;DHT22;66564;42.482;25.548;2023-03-03T04:29:23;5.63;75.93
77467;DHT22;66564;42.482;25.548;2023-03-03T04:31:48;5.66;75.21
77467;DHT22;66564;42.482;25.548;2023-03-03T04:34:14;5.69;74.53
77467;DHT22;66564;42.482;25.548;2023-03-03T04:36:39;5.73;74.29
77467;DHT22;66564;42.482;25.548;2023-03-03T04:39:05;5.71;74.33
77467;DHT22;66564;42.482;25.548;2023-03-03T04:41:30;5.73;73.91
77467;DHT22;66564;42.482;25.548;2023-03-03T04:43:56;5.71;73.06
77467;DHT22;66564;42.482;25.548;2023-03-03T04:46:21;5.77;73.12
77467;DHT22;66564;42.482;25.548;2023-03-03T04:48:47;5.81;73.27
77467;DHT22;66564;42.482;25.548;2023-03-03T04:51:12;5.73;73.42
77467;DHT22;66564;42.482;25.548;2023-03-03T04:53:39;5.76;74.27
77467;DHT22;66564;42.482;25.548;2023-03-03T04:56:04;5.76;74.83
77467;DHT22;66564;42.482;25.548;2023-03-03T04:58:30;5.74;73.98
77467;DHT22;66564;42.482;25.548;2023-03-03T05:00:56;5.70;74.29
77467;DHT22;66564;42.482;25.548;2023-03-03T05:03:22;5.71;74.82
77467;DHT22;66564;42.482;25.548;2023-03-03T05:05:48;5.80;75.24
77467;DHT22;66564;42.482;25.548;2023-03-03T05:08:14;5.77;75.20
77467;DHT22;66564;42.482;25.548;2023-03-03T05:10:40;5.77;74.39
77467;DHT22;66564;42.482;25.548;2023-03-03T05:13:06;5.76;75.04
77467;DHT22;66564;42.482;25.548;2023-03-03T05:15:33;5.74;74.66
77467;DHT22;66564;42.482;25.548;2023-03-03T05:17:58;5.74;75.05
77467;DHT22;66564;42.482;25.548;2023-03-03T05:20:24;5.71;75.48
77467;DHT22;66564;42.482;25.548;2023-03-03T05:22:50;5.73;75.55
77467;DHT22;66564;42.482;25.548;2023-03-03T05:25:16;5.76;75.35
77467;DHT22;66564;42.482;25.548;2023-03-03T05:27:41;5.74;75.33
77467;DHT22;66564;42.482;25.548;2023-03-03T05:30:09;5.77;74.83
77467;DHT22;66564;42.482;25.548;2023-03-03T05:32:35;5.81;75.23
77467;DHT22;66564;42.482;25.548;2023-03-03T05:35:01;5.78;75.14
77467;DHT22;66564;42.482;25.548;2023-03-03T05:37:27;5.78;75.28
77467;DHT22;66564;42.482;25.548;2023-03-03T05:40:12;5.80;75.28
77467;DHT22;66564;42.482;25.548;2023-03-03T05:43:40;5.78;75.22
77467;DHT22;66564;42.482;25.548;2023-03-03T05:47:05;5.73;75.64
77467;DHT22;66564;42.482;25.548;2023-03-03T05:50:30;5.74;75.60
77467;DHT22;66564;42.482;25.548;2023-03-03T05:53:36;5.69;75.62
77467;DHT22;66564;42.482;25.548;2023-03-03T05:56:24;5.67;75.82
77467;DHT22;66564;42.482;25.548;2023-03-03T05:59:46;5.64;75.87
77467;DHT22;66564;42.482;25.548;2023-03-03T06:03:12;5.63;76.22
77467;DHT22;66564;42.482;25.548;2023-03-03T06:06:37;5.62;76.26
77467;DHT22;66564;42.482;25.548;2023-03-03T06:10:02;5.56;76.08
77467;DHT22;66564;42.482;25.548;2023-03-03T06:13:27;5.50;76.22
77467;DHT22;66564;42.482;25.548;2023-03-03T06:16:53;5.47;76.55
77467;DHT22;66564;42.482;25.548;2023-03-03T06:20:18;5.46;76.73
77467;DHT22;66564;42.482;25.548;2023-03-03T06:23:43;5.43;77.03
77467;DHT22;66564;42.482;25.548;2023-03-03T06:27:11;5.46;77.29
77467;DHT22;66564;42.482;25.548;2023-03-03T06:30:36;5.52;76.92
77467;DHT22;66564;42.482;25.548;2023-03-03T06:33:42;5.52;76.80
77467;DHT22;66564;42.482;25.548;2023-03-03T06:36:10;5.59;76.69
77467;DHT22;66564;42.482;25.548;2023-03-03T06:38:36;5.56;76.77
77467;DHT22;66564;42.482;25.548;2023-03-03T06:41:05;5.52;77.00
77467;DHT22;66564;42.482;25.548;2023-03-03T06:43:33;5.57;76.72
77467;DHT22;66564;42.482;25.548;2023-03-03T06:46:08;5.59;76.92
77467;DHT22;66564;42.482;25.548;2023-03-03T06:48:34;5.62;76.90
77467;DHT22;66564;42.482;25.548;2023-03-03T06:51:01;5.60;76.43
77467;DHT22;66564;42.482;25.548;2023-03-03T06:53:32;5.64;76.39
77467;DHT22;66564;42.482;25.548;2023-03-03T06:56:08;5.67;76.34
77467;DHT22;66564;42.482;25.548;2023-03-03T06:58:33;5.73;76.04
77467;DHT22;66564;42.482;25.548;2023-03-03T07:01:00;5.71;75.60
77467;DHT22;66564;42.482;25.548;2023-03-03T07:03:35;5.71;76.06
77467;DHT22;66564;42.482;25.548;2023-03-03T07:06:21;5.69;76.32
77467;DHT22;66564;42.482;25.548;2023-03-03T07:09:49;5.73;76.39
77467;DHT22;66564;42.482;25.548;2023-03-03T07:12:39;5.78;76.17
77467;DHT22;66564;42.482;25.548;2023-03-03T07:15:14;5.77;75.78
77467;DHT22;66564;42.482;25.548;2023-03-03T07:18:04;5.78;76.10
77467;DHT22;66564;42.482;25.548;2023-03-03T07:21:36;5.73;76.12
77467;DHT22;66564;42.482;25.548;2023-03-03T07:25:01;5.69;76.35
77467;DHT22;66564;42.482;25.548;2023-03-03T07:28:27;5.70;76.46
77467;DHT22;66564;42.482;25.548;2023-03-03T07:31:39;5.63;76.57
77467;DHT22;66564;42.482;25.548;2023-03-03T07:36:53;5.70;77.17
77467;DHT22;66564;42.482;25.548;2023-03-03T07:39:34;5.71;77.00
77467;DHT22;66564;42.482;25.548;2023-03-03T07:44:52;5.74;76.50
77467;DHT22;66564;42.482;25.548;2023-03-03T07:47:25;5.77;77.12
77467;DHT22;66564;42.482;25.548;2023-03-03T07:49:59;5.80;76.55
77467;DHT22;66564;42.482;25.548;2023-03-03T07:52:31;5.86;76.47
77467;DHT22;66564;42.482;25.548;2023-03-03T07:55:29;5.93;76.37
77467;DHT22;66564;42.482;25.548;2023-03-03T07:58:57;6.03;75.77
77467;DHT22;66564;42.482;25.548;2023-03-03T08:05:43;6.01;74.94
77467;DHT22;66564;42.482;25.548;2023-03-03T08:14:45;6.04;75.16
77467;DHT22;66564;42.482;25.548;2023-03-03T08:17:34;6.06;74.64
77467;DHT22;66564;42.482;25.548;2023-03-03T08:24:18;6.06;74.44
77467;DHT22;66564;42.482;25.548;2023-03-03T08:27:44;6.06;75.16
77467;DHT22;66564;42.482;25.548;2023-03-03T08:31:09;6.16;74.78
77467;DHT22;66564;42.482;25.548;2023-03-03T08:34:34;6.10;74.29
77467;DHT22;66564;42.482;25.548;2023-03-03T08:37:40;6.08;74.40
77467;DHT22;66564;42.482;25.548;2023-03-03T08:40:28;6.14;74.36
77467;DHT22;66564;42.482;25.548;2023-03-03T08:43:53;6.21;74.27
77467;DHT22;66564;42.482;25.548;2023-03-03T08:47:18;6.20;74.23
77467;DHT22;66564;42.482;25.548;2023-03-03T08:50:24;6.28;74.24
77467;DHT22;66564;42.482;25.548;2023-03-03T08:53:10;6.34;73.80
77467;DHT22;66564;42.482;25.548;2023-03-03T08:56:15;6.35;74.04
77467;DHT22;66564;42.482;25.548;2023-03-03T08:59:00;6.41;74.21
77467;DHT22;66564;42.482;25.548;2023-03-03T09:02:25;6.42;73.76
77467;DHT22;66564;42.482;25.548;2023-03-03T09:05:51;6.45;73.84
77467;DHT22;66564;42.482;25.548;2023-03-03T09:09:16;6.49;74.00
77467;DHT22;66564;42.482;25.548;2023-03-03T09:12:42;6.53;73.33
77467;DHT22;66564;42.482;25.548;2023-03-03T09:16:10;6.59;73.81
77467;DHT22;66564;42.482;25.548;2023-03-03T09:19:48;6.62;73.64
77467;DHT22;66564;42.482;25.548;2023-03-03T09:35:00;6.86;74.47
77467;DHT22;66564;42.482;25.548;2023-03-03T10:11:37;7.40;73.76
77467;DHT22;66564;42.482;25.548;2023-03-03T10:17:57;7.50;72.94
77467;DHT22;66564;42.482;25.548;2023-03-03T10:21:34;7.57;72.93
77467;DHT22;66564;42.482;25.548;2023-03-03T10:31:20;7.75;70.24
77467;DHT22;66564;42.482;25.548;2023-03-03T10:34:49;7.88;71.06
77467;DHT22;66564;42.482;25.548;2023-03-03T10:38:16;8.02;69.71
77467;DHT22;66564;42.482;25.548;2023-03-03T10:52:38;8.29;68.29
77467;DHT22;66564;42.482;25.548;2023-03-03T10:58:12;8.41;67.92
77467;DHT22;66564;42.482;25.548;2023-03-03T11:00:58;8.34;68.41
77467;DHT22;66564;42.482;25.548;2023-03-03T11:03:58;8.09;69.00
77467;DHT22;66564;42.482;25.548;2023-03-03T11:15:35;8.34;67.76
77467;DHT22;66564;42.482;25.548;2023-03-03T11:21:50;8.38;65.93
77467;DHT22;66564;42.482;25.548;2023-03-03T11:36:33;7.91;67.55
77467;DHT22;66564;42.482;25.548;2023-03-03T11:39:07;7.78;69.57
77467;DHT22;66564;42.482;25.548;2023-03-03T11:41:40;7.66;70.69
77467;DHT22;66564;42.482;25.548;2023-03-03T11:44:28;7.54;70.76
77467;DHT22;66564;42.482;25.548;2023-03-03T11:47:16;7.57;70.82
77467;DHT22;66564;42.482;25.548;2023-03-03T11:49:50;7.59;71.71
77467;DHT22;66564;42.482;25.548;2023-03-03T11:54:48;7.36;70.70
77467;DHT22;66564;42.482;25.548;2023-03-03T12:00:25;7.31;71.66
77467;DHT22;66564;42.482;25.548;2023-03-03T12:11:35;7.15;73.63
77467;DHT22;66564;42.482;25.548;2023-03-03T12:14:35;7.07;73.30
77467;DHT22;66564;42.482;25.548;2023-03-03T12:21:04;6.96;73.15
77467;DHT22;66564;42.482;25.548;2023-03-03T12:27:07;6.86;74.75
77467;DHT22;66564;42.482;25.548;2023-03-03T12:30:33;6.89;73.60
77467;DHT22;66564;42.482;25.548;2023-03-03T12:33:56;6.89;73.20
77467;DHT22;66564;42.482;25.548;2023-03-03T12:36:36;6.75;74.25
77467;DHT22;66564;42.482;25.548;2023-03-03T12:45:21;6.85;74.16
77467;DHT22;66564;42.482;25.548;2023-03-03T13:04:36;7.47;69.78
77467;DHT22;66564;42.482;25.548;2023-03-03T13:15:38;7.22;72.10
77467;DHT22;66564;42.482;25.548;2023-03-03T13:21:37;6.99;73.53
77467;DHT22;66564;42.482;25.548;2023-03-03T13:24:17;6.95;72.70
77467;DHT22;66564;42.482;25.548;2023-03-03T13:29:31;6.89;73.34
77467;DHT22;66564;42.482;25.548;2023-03-03T13:32:21;6.88;73.20
77467;DHT22;66564;42.482;25.548;2023-03-03T13:35:05;6.88;73.77
77467;DHT22;66564;42.482;25.548;2023-03-03T13:37:41;6.53;74.80
77467;DHT22;66564;42.482;25.548;2023-03-03T13:40:15;6.56;73.40
77467;DHT22;66564;42.482;25.548;2023-03-03T13:45:22;6.49;73.30
77467;DHT22;66564;42.482;25.548;2023-03-03T13:48:07;6.58;74.11
77467;DHT22;66564;42.482;25.548;2023-03-03T13:50:52;6.59;73.73
77467;DHT22;66564;42.482;25.548;2023-03-03T13:56:51;6.61;74.95
77467;DHT22;66564;42.482;25.548;2023-03-03T13:59:41;6.61;75.30
77467;DHT22;66564;42.482;25.548;2023-03-03T14:02:23;6.62;75.19
77467;DHT22;66564;42.482;25.548;2023-03-03T14:08:09;6.61;75.27
77467;DHT22;66564;42.482;25.548;2023-03-03T14:16:21;6.64;75.08
77467;DHT22;66564;42.482;25.548;2023-03-03T14:19:10;6.49;73.85
77467;DHT22;66564;42.482;25.548;2023-03-03T14:21:48;6.55;74.26
77467;DHT22;66564;42.482;25.548;2023-03-03T14:24:16;6.55;74.10
77467;DHT22;66564;42.482;25.548;2023-03-03T14:26:47;6.55;74.89
77467;DHT22;66564;42.482;25.548;2023-03-03T14:29:30;6.58;75.00
77467;DHT22;66564;42.482;25.548;2023-03-03T14:32:02;6.59;75.39
77467;DHT22;66564;42.482;25.548;2023-03-03T14:34:58;6.59;75.00
77467;DHT22;66564;42.482;25.548;2023-03-03T14:37:45;6.58;74.29
77467;DHT22;66564;42.482;25.548;2023-03-03T14:40:21;6.56;74.64
77467;DHT22;66564;42.482;25.548;2023-03-03T14:42:55;6.59;75.19
77467;DHT22;66564;42.482;25.548;2023-03-03T14:45:30;6.65;75.31
77467;DHT22;66564;42.482;25.548;2023-03-03T14:48:05;6.64;75.38
77467;DHT22;66564;42.482;25.548;2023-03-03T14:50:36;6.69;75.40
77467;DHT22;66564;42.482;25.548;2023-03-03T14:53:10;6.69;74.39
77467;DHT22;66564;42.482;25.548;2023-03-03T14:55:42;6.75;74.82
77467;DHT22;66564;42.482;25.548;2023-03-03T15:00:50;6.81;74.68
77467;DHT22;66564;42.482;25.548;2023-03-03T15:03:30;6.83;75.35
77467;DHT22;66564;42.482;25.548;2023-03-03T15:05:56;6.86;75.52
77467;DHT22;66564;42.482;25.548;2023-03-03T15:08:36;6.88;75.47
77467;DHT22;66564;42.482;25.548;2023-03-03T15:11:24;6.83;75.09
77467;DHT22;66564;42.482;25.548;2023-03-03T15:13:51;6.89;75.39
77467;DHT22;66564;42.482;25.548;2023-03-03T15:16:20;6.91;75.30
77467;DHT22;66564;42.482;25.548;2023-03-03T15:19:19;6.89;75.24
77467;DHT22;66564;42.482;25.548;2023-03-03T15:22:00;6.95;75.23
77467;DHT22;66564;42.482;25.548;2023-03-03T15:24:44;6.96;75.52
77467;DHT22;66564;42.482;25.548;2023-03-03T15:27:36;6.95;75.40
77467;DHT22;66564;42.482;25.548;2023-03-03T15:32:37;6.92;75.66
77467;DHT22;66564;42.482;25.548;2023-03-03T15:35:36;6.93;75.76
77467;DHT22;66564;42.482;25.548;2023-03-03T15:38:17;6.92;75.25
77467;DHT22;66564;42.482;25.548;2023-03-03T15:40:49;6.92;75.73
77467;DHT22;66564;42.482;25.548;2023-03-03T15:57:16;6.89;76.53
77467;DHT22;66564;42.482;25.548;2023-03-03T15:59:58;6.85;76.22
77467;DHT22;66564;42.482;25.548;2023-03-03T16:02:55;6.86;76.55
77467;DHT22;66564;42.482;25.548;2023-03-03T16:08:15;6.76;76.35
77467;DHT22;66564;42.482;25.548;2023-03-03T16:30:32;6.75;76.39
77467;DHT22;66564;42.482;25.548;2023-03-03T16:33:06;6.75;75.88
77467;DHT22;66564;42.482;25.548;2023-03-03T16:35:41;6.71;76.37
77467;DHT22;66564;42.482;25.548;2023-03-03T16:38:25;6.71;76.00
77467;DHT22;66564;42.482;25.548;2023-03-03T16:40:55;6.69;76.32
77467;DHT22;66564;42.482;25.548;2023-03-03T16:43:26;6.69;76.49
77467;DHT22;66564;42.482;25.548;2023-03-03T16:46:04;6.71;76.08
77467;DHT22;66564;42.482;25.548;2023-03-03T16:49:00;6.71;76.90
77467;DHT22;66564;42.482;25.548;2023-03-03T16:52:13;6.69;77.16
77467;DHT22;66564;42.482;25.548;2023-03-03T16:58:18;6.72;77.58
77467;DHT22;66564;42.482;25.548;2023-03-03T17:01:26;6.73;77.45
77467;DHT22;66564;42.482;25.548;2023-03-03T17:05:10;6.79;77.06
77467;DHT22;66564;42.482;25.548;2023-03-03T17:21:31;6.73;77.11
77467;DHT22;66564;42.482;25.548;2023-03-03T17:30:19;6.79;77.06
77467;DHT22;66564;42.482;25.548;2023-03-03T17:37:12;6.55;78.13
77467;DHT22;66564;42.482;25.548;2023-03-03T17:46:02;6.48;78.02
77467;DHT22;66564;42.482;25.548;2023-03-03T17:58:49;6.51;78.05
77467;DHT22;66564;42.482;25.548;2023-03-03T18:04:13;6.51;78.00
77467;DHT22;66564;42.482;25.548;2023-03-03T18:15:38;6.52;78.70
77467;DHT22;66564;42.482;25.548;2023-03-03T18:21:13;6.56;78.63
77467;DHT22;66564;42.482;25.548;2023-03-03T18:23:45;6.53;78.83
77467;DHT22;66564;42.482;25.548;2023-03-03T18:29:17;6.58;78.34
77467;DHT22;66564;42.482;25.548;2023-03-03T18:37:50;6.56;78.87
77467;DHT22;66564;42.482;25.548;2023-03-03T18:46:09;6.55;78.83
77467;DHT22;66564;42.482;25.548;2023-03-03T18:56:00;6.52;79.10
77467;DHT22;66564;42.482;25.548;2023-03-03T19:08:55;6.53;78.93
77467;DHT22;66564;42.482;25.548;2023-03-03T19:20:11;6.62;78.87
77467;DHT22;66564;42.482;25.548;2023-03-03T19:23:03;6.61;78.95
77467;DHT22;66564;42.482;25.548;2023-03-03T19:25:30;6.58;78.11
77467;DHT22;66564;42.482;25.548;2023-03-03T19:39:05;6.69;78.53
77467;DHT22;66564;42.482;25.548;2023-03-03T19:44:27;6.75;78.22
77467;DHT22;66564;42.482;25.548;2023-03-03T20:04:56;6.68;78.17
77467;DHT22;66564;42.482;25.548;2023-03-03T20:08:22;6.72;78.63
77467;DHT22;66564;42.482;25.548;2023-03-03T20:14:46;6.69;78.33
77467;DHT22;66564;42.482;25.548;2023-03-03T20:27:13;6.59;78.63
77467;DHT22;66564;42.482;25.548;2023-03-03T20:38:28;6.64;78.27
77467;DHT22;66564;42.482;25.548;2023-03-03T20:41:11;6.67;78.40
77467;DHT22;66564;42.482;25.548;2023-03-03T21:03:15;6.75;77.21
77467;DHT22;66564;42.482;25.548;2023-03-03T21:05:22;6.71;76.48
77467;DHT22;66564;42.482;25.548;2023-03-03T21:08:02;6.69;76.85
77467;DHT22;66564;42.482;25.548;2023-03-03T21:10:35;6.62;76.73
77467;DHT22;66564;42.482;25.548;2023-03-03T21:18:30;6.65;76.55
77467;DHT22;66564;42.482;25.548;2023-03-03T21:20:56;6.59;76.53
77467;DHT22;66564;42.482;25.548;2023-03-03T21:23:43;6.56;76.60
77467;DHT22;66564;42.482;25.548;2023-03-03T21:30:07;6.48;77.33
77467;DHT22;66564;42.482;25.548;2023-03-03T21:39:46;6.31;77.77
77467;DHT22;66564;42.482;25.548;2023-03-03T21:43:13;6.30;77.94
77467;DHT22;66564;42.482;25.548;2023-03-03T21:46:18;6.32;77.72
77467;DHT22;66564;42.482;25.548;2023-03-03T21:48:47;6.31;77.56
77467;DHT22;66564;42.482;25.548;2023-03-03T21:51:13;6.13;78.31
77467;DHT22;66564;42.482;25.548;2023-03-03T21:53:43;5.97;79.26
77467;DHT22;66564;42.482;25.548;2023-03-03T21:56:12;5.97;79.19
77467;DHT22;66564;42.482;25.548;2023-03-03T21:58:39;5.98;79.28
77467;DHT22;66564;42.482;25.548;2023-03-03T22:01:05;6.04;79.02
77467;DHT22;66564;42.482;25.548;2023-03-03T22:03:31;6.14;78.92
77467;DHT22;66564;42.482;25.548;2023-03-03T22:05:56;6.22;78.25
77467;DHT22;66564;42.482;25.548;2023-03-03T22:08:22;6.20;78.18
77467;DHT22;66564;42.482;25.548;2023-03-03T22:10:51;6.14;78.23
77467;DHT22;66564;42.482;25.548;2023-03-03T22:13:23;6.11;77.91
77467;DHT22;66564;42.482;25.548;2023-03-03T22:15:50;6.13;78.36
77467;DHT22;66564;42.482;25.548;2023-03-03T22:18:16;6.17;78.78
77467;DHT22;66564;42.482;25.548;2023-03-03T22:20:47;5.80;80.01
77467;DHT22;66564;42.482;25.548;2023-03-03T22:23:13;5.86;80.04
77467;DHT22;66564;42.482;25.548;2023-03-03T22:25:39;5.94;79.81
77467;DHT22;66564;42.482;25.548;2023-03-03T22:28:04;5.98;79.69
77467;DHT22;66564;42.482;25.548;2023-03-03T22:30:30;5.98;79.38
77467;DHT22;66564;42.482;25.548;2023-03-03T22:32:55;5.98;79.10
77467;DHT22;66564;42.482;25.548;2023-03-03T22:35:21;6.00;79.21
77467;DHT22;66564;42.482;25.548;2023-03-03T22:37:46;6.08;79.06
77467;DHT22;66564;42.482;25.548;2023-03-03T22:40:12;6.11;78.84
77467;DHT22;66564;42.482;25.548;2023-03-03T22:42:38;6.17;78.59
77467;DHT22;66564;42.482;25.548;2023-03-03T22:45:04;6.18;78.51
77467;DHT22;66564;42.482;25.548;2023-03-03T22:47:29;6.13;78.82
77467;DHT22;66564;42.482;25.548;2023-03-03T22:49:57;5.91;79.47
77467;DHT22;66564;42.482;25.548;2023-03-03T22:52:22;5.97;79.27
77467;DHT22;66564;42.482;25.548;2023-03-03T22:54:48;6.04;79.20
77467;DHT22;66564;42.482;25.548;2023-03-03T22:57:13;6.01;79.43
77467;DHT22;66564;42.482;25.548;2023-03-03T22:59:38;6.04;79.33
77467;DHT22;66564;42.482;25.548;2023-03-03T23:02:04;6.07;78.97
77467;DHT22;66564;42.482;25.548;2023-03-03T23:04:30;6.13;79.00
77467;DHT22;66564;42.482;25.548;2023-03-03T23:06:57;6.14;78.62
77467;DHT22;66564;42.482;25.548;2023-03-03T23:09:23;6.20;78.65
77467;DHT22;66564;42.482;25.548;2023-03-03T23:11:49;6.22;78.40
77467;DHT22;66564;42.482;25.548;2023-03-03T23:14:14;6.21;78.55
77467;DHT22;66564;42.482;25.548;2023-03-03T23:16:39;6.25;78.39
77467;DHT22;66564;42.482;25.548;2023-03-03T23:19:05;6.27;77.87
77467;DHT22;66564;42.482;25.548;2023-03-03T23:21:30;6.24;77.39
77467;DHT22;66564;42.482;25.548;2023-03-03T23:23:56;6.27;77.55
77467;DHT22;66564;42.482;25.548;2023-03-03T23:26:21;6.28;77.27
77467;DHT22;66564;42.482;25.548;2023-03-03T23:28:47;6.24;77.13
77467;DHT22;66564;42.482;25.548;2023-03-03T23:31:13;6.25;77.34
77467;DHT22;66564;42.482;25.548;2023-03-03T23:33:38;6.18;77.42
77467;DHT22;66564;42.482;25.548;2023-03-03T23:36:04;6.06;77.78
77467;DHT22;66564;42.482;25.548;2023-03-03T23:38:29;6.01;77.76
77467;DHT22;66564;42.482;25.548;2023-03-03T23:40:55;6.07;77.81
77467;DHT22;66564;42.482;25.548;2023-03-03T23:43:20;6.04;77.94
77467;DHT22;66564;42.482;25.548;2023-03-03T23:45:46;6.00;78.03
77467;DHT22;66564;42.482;25.548;2023-03-03T23:48:11;6.00;78.13
77467;DHT22;66564;42.482;25.548;2023-03-03T23:50:37;5.96;78.00
77467;DHT22;66564;42.482;25.548;2023-03-03T23:53:04;6.00;78.16